Burtrum, Minnesota
Current Conditions -  °F | °C
As of 2:22 PM on Saturday 25 Oct 2014 (Local Time) from K14Y Reporting Station
Clear Clear  
Wind Chill: 55°   Ceiling: Unl
Heat Index: 55°   Visibility: 10mi
Dew Point: 27°   Wind: 15mph
Humidity: 33%   Direction: 260°W
Pressure: 30.07"   Gusts: 21mph
Location:  45.87°N, 94.69°W
Report Text: K14Y 251922Z AUTO 26013G18KT 10SM CLR 13/M03 A3007 RMK AO2
Loading
Personal Weather Stations






























Interactive Weather Map
Tropical Storm Tracking
New forecast layout! Learn more

10-Day Weather Forecast

Advertisements
Track Severe Weather on mobile